createdAt,value
2017-12-16T00:00:49.200Z,1.00
2017-12-16T00:03:15.382Z,1.00
2017-12-16T00:05:41.674Z,1.00
2017-12-16T00:08:07.827Z,0.90
2017-12-16T00:10:34.800Z,0.80
2017-12-16T00:13:01.005Z,0.80
2017-12-16T00:15:27.244Z,0.90
2017-12-16T00:17:53.425Z,0.90
2017-12-16T00:20:19.643Z,0.90
2017-12-16T00:22:46.006Z,0.80
2017-12-16T00:25:12.972Z,0.80
2017-12-16T00:27:39.172Z,0.80
2017-12-16T00:30:06.112Z,0.80
2017-12-16T00:32:33.113Z,0.80
2017-12-16T00:34:59.324Z,0.80
2017-12-16T00:37:25.543Z,0.70
2017-12-16T00:39:51.758Z,0.70
2017-12-16T00:42:18.012Z,0.70
2017-12-16T00:44:44.236Z,0.70
2017-12-16T00:47:10.517Z,0.60
2017-12-16T00:49:37.505Z,0.70
2017-12-16T00:52:03.764Z,0.70
2017-12-16T00:54:29.916Z,0.80
2017-12-16T00:56:56.860Z,0.70
2017-12-16T00:59:23.818Z,0.70
2017-12-16T01:01:49.938Z,0.70
2017-12-16T01:04:16.954Z,0.60
2017-12-16T01:06:43.159Z,0.60
2017-12-16T01:09:09.447Z,0.60
2017-12-16T01:11:35.694Z,0.60
2017-12-16T01:14:01.932Z,0.60
2017-12-16T01:16:28.212Z,0.50
2017-12-16T01:18:55.343Z,0.50
2017-12-16T01:21:21.607Z,0.40
2017-12-16T01:23:48.259Z,0.40
2017-12-16T01:26:14.543Z,0.40
2017-12-16T01:28:41.518Z,0.20
2017-12-16T01:31:07.859Z,0.20
2017-12-16T01:33:47.135Z,0.20
2017-12-16T01:36:25.610Z,0.10
2017-12-16T01:38:51.923Z,0.10
2017-12-16T01:41:18.171Z,0.00
2017-12-16T01:43:44.483Z,0.00
2017-12-16T01:46:10.778Z,0.00
2017-12-16T01:48:36.998Z,0.00
2017-12-16T01:51:04.086Z,0.00
2017-12-16T01:53:30.582Z,0.00
2017-12-16T01:55:57.515Z,0.10
2017-12-16T01:58:23.799Z,0.10
2017-12-16T02:00:50.053Z,0.10
2017-12-16T02:03:16.401Z,0.10
2017-12-16T02:05:42.772Z,0.20
2017-12-16T02:08:09.183Z,0.20
2017-12-16T02:10:36.296Z,0.20
2017-12-16T02:13:03.266Z,0.20
2017-12-16T02:15:30.191Z,0.20
2017-12-16T02:17:56.426Z,0.20
2017-12-16T02:20:22.664Z,0.20
2017-12-16T02:22:49.732Z,0.20
2017-12-16T02:25:15.974Z,0.20
2017-12-16T02:27:42.251Z,0.30
2017-12-16T02:30:08.392Z,0.30
2017-12-16T02:32:35.433Z,0.30
2017-12-16T02:35:02.408Z,0.30
2017-12-16T02:37:28.715Z,0.30
2017-12-16T02:39:55.634Z,0.40
2017-12-16T02:42:21.869Z,0.30
2017-12-16T02:44:48.145Z,0.40
2017-12-16T02:47:14.359Z,0.40
2017-12-16T02:49:40.583Z,0.40
2017-12-16T02:52:06.914Z,0.40
2017-12-16T02:54:33.163Z,0.40
2017-12-16T02:57:00.263Z,0.40
2017-12-16T02:59:27.430Z,0.40
2017-12-16T03:01:53.690Z,0.40
2017-12-16T03:04:19.993Z,0.40
2017-12-16T03:06:46.144Z,0.40
2017-12-16T03:09:12.386Z,0.40
2017-12-16T03:11:38.717Z,0.40
2017-12-16T03:14:07.988Z,0.40
2017-12-16T03:16:34.232Z,0.30
2017-12-16T03:19:00.477Z,0.30
2017-12-16T03:21:26.831Z,0.30
2017-12-16T03:23:53.805Z,0.30
2017-12-16T03:26:19.977Z,0.30
2017-12-16T03:28:46.226Z,0.30
2017-12-16T03:31:13.176Z,0.30
2017-12-16T03:33:40.139Z,0.30
2017-12-16T03:36:06.375Z,0.30
2017-12-16T03:38:32.586Z,0.40
2017-12-16T03:40:58.790Z,0.30
2017-12-16T03:43:25.752Z,0.30
2017-12-16T03:45:51.964Z,0.30
2017-12-16T03:48:18.967Z,0.30
2017-12-16T03:50:45.333Z,0.30
2017-12-16T03:53:12.301Z,0.30
2017-12-16T03:55:38.465Z,0.30
2017-12-16T03:58:04.632Z,0.30
2017-12-16T04:00:31.577Z,0.30
2017-12-16T04:02:58.524Z,0.30
2017-12-16T04:05:25.446Z,0.30
2017-12-16T04:07:51.625Z,0.30
2017-12-16T04:10:17.843Z,0.30
2017-12-16T04:12:44.063Z,0.30
2017-12-16T04:15:10.744Z,0.30
2017-12-16T04:17:37.797Z,0.30
2017-12-16T04:20:03.956Z,0.30
2017-12-16T04:22:31.063Z,0.30
2017-12-16T04:24:57.313Z,0.30
2017-12-16T04:27:23.700Z,0.30
2017-12-16T04:29:49.966Z,0.30
2017-12-16T04:32:16.190Z,0.30
2017-12-16T04:34:42.486Z,0.30
2017-12-16T04:37:08.765Z,0.30
2017-12-16T04:39:35.748Z,0.30
2017-12-16T04:42:02.011Z,0.30
2017-12-16T04:44:28.336Z,0.30
2017-12-16T04:46:54.812Z,0.30
2017-12-16T04:49:21.246Z,0.30
2017-12-16T04:51:47.626Z,0.30
2017-12-16T04:54:13.937Z,0.30
2017-12-16T04:56:40.154Z,0.30
2017-12-16T04:59:06.335Z,0.20
2017-12-16T05:01:33.398Z,0.10
2017-12-16T05:04:00.323Z,0.10
2017-12-16T05:06:27.440Z,0.10
2017-12-16T05:08:53.649Z,0.10
2017-12-16T05:11:19.948Z,0.10
2017-12-16T05:13:46.315Z,0.10
2017-12-16T05:16:12.548Z,0.10
2017-12-16T05:18:38.786Z,0.10
2017-12-16T05:21:04.988Z,0.10
2017-12-16T05:23:31.248Z,0.10
2017-12-16T05:25:57.464Z,0.10
2017-12-16T05:28:25.177Z,0.10
2017-12-16T05:30:51.389Z,0.10
2017-12-16T05:33:18.343Z,0.00
2017-12-16T05:35:44.544Z,0.00
2017-12-16T05:38:10.742Z,0.00
2017-12-16T05:40:36.914Z,-0.10
2017-12-16T05:43:03.915Z,-0.20
2017-12-16T05:45:30.273Z,-0.20
2017-12-16T05:47:56.709Z,-0.30
2017-12-16T05:50:23.671Z,-0.50
2017-12-16T05:52:49.858Z,-0.60
2017-12-16T05:55:16.825Z,-0.70
2017-12-16T05:57:43.844Z,-0.80
2017-12-16T06:00:10.071Z,-0.80
2017-12-16T06:02:37.218Z,-1.00
2017-12-16T06:05:03.381Z,-1.00
2017-12-16T06:07:29.754Z,-1.10
2017-12-16T06:09:55.999Z,-1.10
2017-12-16T06:12:24.085Z,-1.20
2017-12-16T06:14:50.278Z,-1.20
2017-12-16T06:17:16.725Z,-1.20
2017-12-16T06:19:43.111Z,-1.30
2017-12-16T06:22:09.236Z,-1.40
2017-12-16T06:24:35.426Z,-1.40
2017-12-16T06:27:02.435Z,-1.50
2017-12-16T06:29:28.670Z,-1.50
2017-12-16T06:31:54.928Z,-1.60
2017-12-16T06:34:21.957Z,-1.70
2017-12-16T06:36:48.299Z,-1.70
2017-12-16T06:39:15.428Z,-1.80
2017-12-16T06:41:41.627Z,-1.80
2017-12-16T06:44:07.807Z,-1.80
2017-12-16T06:46:34.823Z,-1.90
2017-12-16T06:49:01.178Z,-1.90
2017-12-16T06:51:28.209Z,-2.00
2017-12-16T06:53:55.304Z,-1.90
2017-12-16T06:56:21.475Z,-2.00
2017-12-16T06:58:47.733Z,-1.80
2017-12-16T07:01:14.736Z,-1.80
2017-12-16T07:03:41.143Z,-1.80
2017-12-16T07:06:07.323Z,-1.80
2017-12-16T07:08:33.613Z,-1.70
2017-12-16T07:11:00.070Z,-1.70
2017-12-16T07:13:27.097Z,-1.50
2017-12-16T07:15:53.242Z,-1.50
2017-12-16T07:18:19.585Z,-1.50
2017-12-16T07:20:46.464Z,-1.40
2017-12-16T07:23:12.806Z,-1.40
2017-12-16T07:25:38.999Z,-1.30
2017-12-16T07:28:05.273Z,-1.30
2017-12-16T07:30:31.695Z,-1.30
2017-12-16T07:32:58.047Z,-1.20
2017-12-16T07:35:24.244Z,-1.20
2017-12-16T07:37:50.601Z,-1.10
2017-12-16T07:40:17.647Z,-1.10
2017-12-16T07:42:43.968Z,-1.00
2017-12-16T07:45:10.799Z,-1.00
2017-12-16T07:47:37.241Z,-1.00
2017-12-16T07:50:03.557Z,-0.90
2017-12-16T07:52:29.822Z,-0.90
2017-12-16T07:54:56.068Z,-0.80
2017-12-16T07:57:23.053Z,-0.80
2017-12-16T07:59:49.328Z,-0.80
2017-12-16T08:02:16.301Z,-0.70
2017-12-16T08:04:42.508Z,-0.70
2017-12-16T08:07:09.607Z,-0.70
2017-12-16T08:09:35.841Z,-0.70
2017-12-16T08:12:02.065Z,-0.70
2017-12-16T08:14:28.413Z,-0.60
2017-12-16T08:16:54.656Z,-0.60
2017-12-16T08:19:21.675Z,-0.50
2017-12-16T08:21:47.999Z,-0.60
2017-12-16T08:24:14.330Z,-0.50
2017-12-16T08:26:40.652Z,-0.50
2017-12-16T08:29:06.917Z,-0.50
2017-12-16T08:31:33.198Z,-0.40
2017-12-16T08:33:59.484Z,-0.40
2017-12-16T08:36:26.497Z,-0.40
2017-12-16T08:38:52.812Z,-0.40
2017-12-16T08:41:18.994Z,-0.30
2017-12-16T08:43:45.259Z,-0.30
2017-12-16T08:46:11.473Z,-0.30
2017-12-16T08:48:37.763Z,-0.30
2017-12-16T08:51:04.841Z,-0.30
2017-12-16T08:53:31.346Z,-0.30
2017-12-16T08:55:57.651Z,-0.20
2017-12-16T08:58:24.654Z,-0.20
2017-12-16T09:00:51.720Z,-0.20
2017-12-16T09:03:18.054Z,-0.10
2017-12-16T09:05:44.293Z,0.00
2017-12-16T09:08:10.567Z,0.00
2017-12-16T09:10:36.801Z,0.00
2017-12-16T09:13:03.174Z,0.00
2017-12-16T09:15:29.371Z,0.00
2017-12-16T09:17:55.666Z,0.00
2017-12-16T09:20:21.808Z,0.10
2017-12-16T09:22:48.146Z,0.10
2017-12-16T09:25:14.427Z,0.10
2017-12-16T09:27:41.353Z,0.20
2017-12-16T09:30:07.813Z,0.20
2017-12-16T09:32:34.811Z,0.30
2017-12-16T09:35:02.135Z,0.30
2017-12-16T09:37:28.467Z,0.30
2017-12-16T09:39:54.624Z,0.30
2017-12-16T09:42:20.939Z,0.40
2017-12-16T09:44:47.094Z,0.30
2017-12-16T09:47:13.356Z,0.40
2017-12-16T09:49:39.616Z,0.40
2017-12-16T09:52:05.880Z,0.50
2017-12-16T09:54:32.040Z,0.50
2017-12-16T09:56:58.293Z,0.50
2017-12-16T09:59:24.610Z,0.50
2017-12-16T10:01:50.827Z,0.60
2017-12-16T10:04:17.018Z,0.60
2017-12-16T10:06:43.237Z,0.60
2017-12-16T10:09:09.461Z,0.70
2017-12-16T10:11:35.825Z,0.70
2017-12-16T10:14:02.068Z,0.80
2017-12-16T10:16:28.443Z,0.80
2017-12-16T10:18:54.804Z,0.80
2017-12-16T10:21:21.087Z,0.90
2017-12-16T10:23:48.049Z,0.90
2017-12-16T10:26:14.297Z,0.90
2017-12-16T10:28:41.372Z,1.00
2017-12-16T10:31:07.757Z,0.90
2017-12-16T10:33:35.093Z,0.90
2017-12-16T10:36:01.990Z,1.00
2017-12-16T10:38:28.690Z,1.10
2017-12-16T10:40:55.134Z,1.10
2017-12-16T10:43:22.296Z,1.20
2017-12-16T10:45:48.570Z,1.10
2017-12-16T10:48:14.926Z,1.10
2017-12-16T10:50:41.203Z,1.10
2017-12-16T10:53:07.491Z,1.10
2017-12-16T10:55:35.590Z,1.10
2017-12-16T10:58:01.844Z,1.10
2017-12-16T11:00:33.961Z,1.10
2017-12-16T11:03:00.975Z,1.00
2017-12-16T11:05:27.327Z,1.10
2017-12-16T11:07:54.512Z,1.00
2017-12-16T11:10:20.774Z,1.00
2017-12-16T11:12:47.386Z,1.00
2017-12-16T11:15:13.751Z,1.10
2017-12-16T11:17:39.975Z,1.20
2017-12-16T11:20:06.211Z,1.30
2017-12-16T11:22:32.782Z,1.40
2017-12-16T11:24:59.122Z,1.40
2017-12-16T11:27:25.366Z,1.50
2017-12-16T11:29:51.613Z,1.50
2017-12-16T11:32:17.771Z,1.60
2017-12-16T11:34:44.778Z,1.70
2017-12-16T11:37:10.946Z,1.70
2017-12-16T11:39:37.204Z,1.80
2017-12-16T11:42:03.434Z,1.90
2017-12-16T11:44:29.709Z,2.00
2017-12-16T11:46:56.120Z,2.00
2017-12-16T11:49:22.362Z,2.10
2017-12-16T11:51:49.943Z,2.20
2017-12-16T11:54:17.055Z,2.30
2017-12-16T11:56:43.330Z,2.30
2017-12-16T11:59:10.276Z,2.40
2017-12-16T12:01:36.568Z,2.30
2017-12-16T12:04:02.845Z,2.30
2017-12-16T12:06:29.132Z,2.30
2017-12-16T12:08:55.532Z,2.30
2017-12-16T12:11:22.428Z,2.30
2017-12-16T12:13:49.351Z,2.30
2017-12-16T12:16:15.501Z,2.20
2017-12-16T12:18:42.573Z,2.20
2017-12-16T12:21:08.800Z,2.20
2017-12-16T12:23:35.011Z,2.20
2017-12-16T12:26:01.190Z,2.20
2017-12-16T12:28:27.476Z,2.30
2017-12-16T12:30:53.685Z,2.30
2017-12-16T12:33:20.038Z,2.30
2017-12-16T12:35:46.316Z,2.30
2017-12-16T12:38:13.355Z,2.40
2017-12-16T12:40:39.736Z,2.40
2017-12-16T12:43:06.067Z,2.50
2017-12-16T12:45:32.333Z,2.40
2017-12-16T12:47:58.558Z,2.40
2017-12-16T12:50:24.784Z,2.40
2017-12-16T12:52:50.988Z,2.40
2017-12-16T12:55:17.281Z,2.40
2017-12-16T12:57:43.428Z,2.40
2017-12-16T13:00:09.598Z,2.40
2017-12-16T13:02:35.912Z,2.30
2017-12-16T13:05:02.007Z,2.30
2017-12-16T13:07:28.237Z,2.20
2017-12-16T13:09:54.450Z,2.20
2017-12-16T13:12:20.851Z,2.20
2017-12-16T13:14:47.796Z,2.10
2017-12-16T13:17:14.755Z,2.10
2017-12-16T13:19:41.023Z,2.10
2017-12-16T13:22:07.194Z,2.10
2017-12-16T13:24:34.163Z,2.10
2017-12-16T13:27:00.393Z,2.10
2017-12-16T13:29:26.648Z,2.20
2017-12-16T13:31:52.875Z,2.10
2017-12-16T13:34:19.134Z,2.10
2017-12-16T13:36:45.305Z,2.10
2017-12-16T13:39:11.730Z,2.10
2017-12-16T13:41:37.977Z,2.20
2017-12-16T13:44:04.131Z,2.20
2017-12-16T13:46:30.322Z,2.20
2017-12-16T13:48:56.469Z,2.20
2017-12-16T13:51:22.739Z,2.20
2017-12-16T13:53:49.905Z,2.20
2017-12-16T13:56:16.107Z,2.20
2017-12-16T13:58:43.221Z,2.20
2017-12-16T14:01:09.411Z,2.10
2017-12-16T14:03:35.655Z,2.20
2017-12-16T14:06:01.807Z,2.10
2017-12-16T14:08:27.972Z,2.10
2017-12-16T14:10:54.297Z,2.10
2017-12-16T14:13:20.596Z,2.10
2017-12-16T14:15:46.900Z,2.00
2017-12-16T14:18:13.160Z,1.90
2017-12-16T14:20:39.415Z,1.80
2017-12-16T14:23:05.555Z,1.70
2017-12-16T14:25:31.830Z,1.60
2017-12-16T14:27:58.014Z,1.60
2017-12-16T14:30:24.197Z,1.60
2017-12-16T14:32:51.187Z,1.50
2017-12-16T14:35:17.507Z,1.50
2017-12-16T14:37:43.864Z,1.40
2017-12-16T14:40:10.252Z,1.30
2017-12-16T14:42:36.469Z,1.30
2017-12-16T14:45:04.295Z,1.40
2017-12-16T14:47:30.466Z,1.30
2017-12-16T14:49:56.772Z,1.30
2017-12-16T14:52:23.743Z,1.30
2017-12-16T14:54:49.964Z,1.20
2017-12-16T14:57:16.377Z,1.30
2017-12-16T14:59:43.341Z,1.20
2017-12-16T15:02:09.726Z,1.20
2017-12-16T15:04:36.004Z,1.20
2017-12-16T15:07:02.367Z,1.10
2017-12-16T15:09:28.705Z,1.10
2017-12-16T15:11:55.796Z,1.10
2017-12-16T15:14:22.831Z,1.00
2017-12-16T15:16:49.764Z,0.90
2017-12-16T15:19:15.940Z,0.90
2017-12-16T15:21:42.208Z,0.90
2017-12-16T15:24:08.550Z,0.90
2017-12-16T15:26:34.817Z,0.90
2017-12-16T15:29:00.997Z,0.90
2017-12-16T15:31:27.331Z,0.80
2017-12-16T15:33:53.479Z,0.80
2017-12-16T15:36:19.667Z,0.90
2017-12-16T15:38:45.782Z,0.80
2017-12-16T15:41:12.065Z,0.90
2017-12-16T15:43:38.420Z,0.80
2017-12-16T15:46:04.743Z,0.70
2017-12-16T15:48:31.800Z,0.70
2017-12-16T15:50:58.775Z,0.70
2017-12-16T15:53:24.918Z,0.70
2017-12-16T15:55:51.922Z,0.70
2017-12-16T15:58:18.149Z,0.60
2017-12-16T16:00:44.368Z,0.60
2017-12-16T16:03:10.509Z,0.60
2017-12-16T16:05:36.789Z,0.60
2017-12-16T16:08:03.109Z,0.60
2017-12-16T16:10:30.322Z,0.50
2017-12-16T16:12:56.637Z,0.50
2017-12-16T16:15:22.799Z,0.60
2017-12-16T16:17:49.708Z,0.60
2017-12-16T16:20:15.966Z,0.60
2017-12-16T16:22:42.925Z,0.60
2017-12-16T16:25:09.989Z,0.60
2017-12-16T16:27:36.346Z,0.60
2017-12-16T16:30:02.572Z,0.60
2017-12-16T16:32:28.744Z,0.60
2017-12-16T16:34:55.726Z,0.60
2017-12-16T16:37:21.972Z,0.50
2017-12-16T16:39:48.258Z,0.60
2017-12-16T16:42:14.459Z,0.50
2017-12-16T16:44:40.643Z,0.50
2017-12-16T16:47:06.860Z,0.50
2017-12-16T16:49:33.077Z,0.50
2017-12-16T16:51:59.367Z,0.50
2017-12-16T16:54:25.536Z,0.50
2017-12-16T16:56:51.799Z,0.50
2017-12-16T16:59:18.019Z,0.50
2017-12-16T17:01:44.269Z,0.50
2017-12-16T17:04:10.507Z,0.50
2017-12-16T17:06:37.403Z,0.50
2017-12-16T17:09:04.229Z,0.50
2017-12-16T17:11:30.521Z,0.60
2017-12-16T17:13:57.608Z,0.70
2017-12-16T17:16:23.801Z,0.60
2017-12-16T17:18:50.785Z,0.60
2017-12-16T17:21:16.964Z,0.60
2017-12-16T17:23:44.017Z,0.60
2017-12-16T17:26:11.080Z,0.50
2017-12-16T17:28:37.352Z,0.50
2017-12-16T17:31:03.637Z,0.40
2017-12-16T17:33:30.117Z,0.40
2017-12-16T17:35:56.307Z,0.40
2017-12-16T17:38:22.555Z,0.30
2017-12-16T17:40:48.792Z,0.30
2017-12-16T17:43:15.351Z,0.30
2017-12-16T17:45:42.286Z,0.40
2017-12-16T17:48:08.451Z,0.30
2017-12-16T17:50:34.666Z,0.40
2017-12-16T17:53:00.864Z,0.40
2017-12-16T17:55:27.088Z,0.40
2017-12-16T17:57:53.299Z,0.40
2017-12-16T18:00:19.457Z,0.40
2017-12-16T18:02:46.335Z,0.40
2017-12-16T18:05:12.569Z,0.40
2017-12-16T18:07:38.803Z,0.40
2017-12-16T18:10:05.232Z,0.40
2017-12-16T18:12:31.501Z,0.50
2017-12-16T18:14:58.566Z,0.50
2017-12-16T18:17:24.742Z,0.40
2017-12-16T18:19:50.931Z,0.50
2017-12-16T18:22:17.222Z,0.40
2017-12-16T18:24:43.444Z,0.50
2017-12-16T18:27:09.727Z,0.50
2017-12-16T18:29:35.934Z,0.50
2017-12-16T18:32:02.130Z,0.50
2017-12-16T18:34:28.455Z,0.50
2017-12-16T18:36:54.728Z,0.50
2017-12-16T18:39:21.020Z,0.50
2017-12-16T18:41:48.134Z,0.40
2017-12-16T18:44:15.108Z,0.30
2017-12-16T18:46:41.306Z,0.30
2017-12-16T18:49:07.695Z,0.30
2017-12-16T18:51:33.895Z,0.30
2017-12-16T18:54:00.859Z,0.30
2017-12-16T18:56:26.986Z,0.30
2017-12-16T18:58:53.184Z,0.30
2017-12-16T19:01:19.403Z,0.20
2017-12-16T19:03:45.649Z,0.20
2017-12-16T19:06:12.566Z,0.20
2017-12-16T19:08:38.723Z,0.10
2017-12-16T19:11:05.891Z,0.10
2017-12-16T19:13:32.132Z,0.10
2017-12-16T19:15:58.370Z,0.10
2017-12-16T19:18:24.543Z,0.10
2017-12-16T19:20:51.458Z,0.00
2017-12-16T19:23:17.733Z,-0.10
2017-12-16T19:25:45.168Z,-0.10
2017-12-16T19:28:12.209Z,-0.10
2017-12-16T19:30:38.374Z,-0.10
2017-12-16T19:33:04.571Z,-0.10
2017-12-16T19:35:31.533Z,0.00
2017-12-16T19:37:57.832Z,-0.10
2017-12-16T19:40:24.850Z,-0.10
2017-12-16T19:42:51.394Z,-0.10
2017-12-16T19:45:17.667Z,-0.10
2017-12-16T19:47:43.825Z,-0.20
2017-12-16T19:50:10.154Z,-0.20
2017-12-16T19:52:36.393Z,-0.30
2017-12-16T19:55:02.617Z,-0.40
2017-12-16T19:57:28.915Z,-0.50
2017-12-16T19:59:55.176Z,-0.60
2017-12-16T20:02:21.556Z,-0.60
2017-12-16T20:04:47.755Z,-0.60
2017-12-16T20:07:13.948Z,-0.60
2017-12-16T20:09:40.096Z,-0.50
2017-12-16T20:12:07.179Z,-0.50
2017-12-16T20:14:34.675Z,-0.50
2017-12-16T20:17:01.678Z,-0.50
2017-12-16T20:19:28.019Z,-0.50
2017-12-16T20:21:54.275Z,-0.50
2017-12-16T20:24:21.074Z,-0.40
2017-12-16T20:26:48.043Z,-0.40
2017-12-16T20:29:14.449Z,-0.40
2017-12-16T20:31:41.529Z,-0.30
2017-12-16T20:34:07.707Z,-0.30
2017-12-16T20:36:34.676Z,-0.30
2017-12-16T20:39:00.906Z,-0.40
2017-12-16T20:41:27.196Z,-0.40
2017-12-16T20:43:53.388Z,-0.50
2017-12-16T20:46:19.563Z,-0.50
2017-12-16T20:48:46.516Z,-0.40
2017-12-16T20:51:12.710Z,-0.50
2017-12-16T20:53:38.988Z,-0.40
2017-12-16T20:56:05.139Z,-0.40
2017-12-16T20:58:31.400Z,-0.40
2017-12-16T21:00:57.663Z,-0.30
2017-12-16T21:03:23.864Z,-0.20
2017-12-16T21:05:50.751Z,-0.10
2017-12-16T21:08:16.967Z,-0.20
2017-12-16T21:10:43.094Z,-0.10
2017-12-16T21:13:09.345Z,-0.10
2017-12-16T21:15:35.551Z,-0.10
2017-12-16T21:18:01.750Z,-0.20
2017-12-16T21:20:27.914Z,-0.10
2017-12-16T21:22:54.183Z,-0.10
2017-12-16T21:25:21.054Z,0.00
2017-12-16T21:27:47.198Z,0.00
2017-12-16T21:30:13.384Z,0.10
2017-12-16T21:32:40.277Z,0.20
2017-12-16T21:35:06.448Z,0.20
2017-12-16T21:37:33.348Z,0.30
2017-12-16T21:39:59.589Z,0.30
2017-12-16T21:42:25.791Z,0.40
2017-12-16T21:44:52.058Z,0.40
2017-12-16T21:47:18.964Z,0.40
2017-12-16T21:49:45.184Z,0.40
2017-12-16T21:52:11.510Z,0.40
2017-12-16T21:54:37.722Z,0.40
2017-12-16T21:57:04.049Z,0.40
2017-12-16T21:59:30.189Z,0.50
2017-12-16T22:01:56.697Z,0.50
2017-12-16T22:04:23.098Z,0.40
2017-12-16T22:06:49.487Z,0.40
2017-12-16T22:09:15.769Z,0.50
2017-12-16T22:11:42.714Z,0.50
2017-12-16T22:14:10.848Z,0.60
2017-12-16T22:16:37.956Z,0.50
2017-12-16T22:19:04.151Z,0.60
2017-12-16T22:21:31.155Z,0.70
2017-12-16T22:23:57.371Z,0.70
2017-12-16T22:26:23.573Z,0.60
2017-12-16T22:28:49.798Z,0.60
2017-12-16T22:31:15.939Z,0.60
2017-12-16T22:33:42.293Z,0.60
2017-12-16T22:36:08.450Z,0.60
2017-12-16T22:38:34.677Z,0.50
2017-12-16T22:41:01.545Z,0.60
2017-12-16T22:43:27.801Z,0.60
2017-12-16T22:45:54.008Z,0.60
2017-12-16T22:48:20.328Z,0.60
2017-12-16T22:50:46.693Z,0.60
2017-12-16T22:53:12.902Z,0.70
2017-12-16T22:55:39.167Z,0.70
2017-12-16T22:58:05.349Z,0.70
2017-12-16T23:00:31.632Z,0.80
2017-12-16T23:02:57.770Z,0.80
2017-12-16T23:05:24.147Z,0.80
2017-12-16T23:07:50.370Z,0.70
2017-12-16T23:10:16.662Z,0.70
2017-12-16T23:12:44.009Z,0.70
2017-12-16T23:15:10.989Z,0.70
2017-12-16T23:17:37.188Z,0.60
2017-12-16T23:20:04.075Z,0.70
2017-12-16T23:22:31.131Z,0.60
2017-12-16T23:24:57.406Z,0.70
2017-12-16T23:27:24.473Z,0.70
2017-12-16T23:29:51.871Z,0.80
2017-12-16T23:32:18.119Z,0.80
2017-12-16T23:34:45.115Z,0.70
2017-12-16T23:37:11.376Z,0.70
2017-12-16T23:39:37.636Z,0.70
2017-12-16T23:42:04.019Z,0.70
2017-12-16T23:44:30.965Z,0.60
2017-12-16T23:46:57.209Z,0.60
2017-12-16T23:49:23.414Z,0.60
2017-12-16T23:51:49.695Z,0.60
2017-12-16T23:54:15.836Z,0.60
2017-12-16T23:56:42.051Z,0.70
2017-12-16T23:59:08.252Z,0.70
